sensor_id;sensor_type;location;lat;lon;timestamp;temperature;humidity
18729;DHT22;9493;51.884;5.188;2023-02-15T00:01:07;3.30;99.90
18729;DHT22;9493;51.884;5.188;2023-02-15T00:03:34;3.30;99.90
18729;DHT22;9493;51.884;5.188;2023-02-15T00:06:01;3.30;99.90
18729;DHT22;9493;51.884;5.188;2023-02-15T00:08:28;3.20;99.90
18729;DHT22;9493;51.884;5.188;2023-02-15T00:11:04;3.20;99.90
18729;DHT22;9493;51.884;5.188;2023-02-15T00:13:31;3.20;99.90
18729;DHT22;9493;51.884;5.188;2023-02-15T00:16:01;3.20;99.90
18729;DHT22;9493;51.884;5.188;2023-02-15T00:18:29;3.20;99.90
18729;DHT22;9493;51.884;5.188;2023-02-15T00:20:56;3.20;99.90
18729;DHT22;9493;51.884;5.188;2023-02-15T00:23:23;3.30;99.90
18729;DHT22;9493;51.884;5.188;2023-02-15T00:25:50;3.20;99.90
18729;DHT22;9493;51.884;5.188;2023-02-15T00:28:17;3.30;99.90
18729;DHT22;9493;51.884;5.188;2023-02-15T00:30:44;3.40;99.90
18729;DHT22;9493;51.884;5.188;2023-02-15T00:33:11;3.40;99.90
18729;DHT22;9493;51.884;5.188;2023-02-15T00:35:39;3.40;99.90
18729;DHT22;9493;51.884;5.188;2023-02-15T00:38:06;3.50;99.90
18729;DHT22;9493;51.884;5.188;2023-02-15T00:40:33;3.60;99.90
18729;DHT22;9493;51.884;5.188;2023-02-15T00:42:59;3.60;99.90
18729;DHT22;9493;51.884;5.188;2023-02-15T00:45:26;3.60;99.90
18729;DHT22;9493;51.884;5.188;2023-02-15T00:47:53;3.60;99.90
18729;DHT22;9493;51.884;5.188;2023-02-15T00:50:20;3.60;99.90
18729;DHT22;9493;51.884;5.188;2023-02-15T00:52:48;3.60;99.90
18729;DHT22;9493;51.884;5.188;2023-02-15T00:55:15;3.60;99.90
18729;DHT22;9493;51.884;5.188;2023-02-15T00:57:42;3.60;99.90
18729;DHT22;9493;51.884;5.188;2023-02-15T01:00:10;3.60;99.90
18729;DHT22;9493;51.884;5.188;2023-02-15T01:02:37;3.50;99.90
18729;DHT22;9493;51.884;5.188;2023-02-15T01:05:04;3.50;99.90
18729;DHT22;9493;51.884;5.188;2023-02-15T01:07:31;3.40;99.90
18729;DHT22;9493;51.884;5.188;2023-02-15T01:09:59;3.40;99.90
18729;DHT22;9493;51.884;5.188;2023-02-15T01:12:26;3.30;99.90
18729;DHT22;9493;51.884;5.188;2023-02-15T01:14:53;3.30;99.90
18729;DHT22;9493;51.884;5.188;2023-02-15T01:17:19;3.30;99.90
18729;DHT22;9493;51.884;5.188;2023-02-15T01:19:46;3.30;99.90
18729;DHT22;9493;51.884;5.188;2023-02-15T01:22:13;3.20;99.90
18729;DHT22;9493;51.884;5.188;2023-02-15T01:24:40;3.10;99.90
18729;DHT22;9493;51.884;5.188;2023-02-15T01:27:09;3.10;99.90
18729;DHT22;9493;51.884;5.188;2023-02-15T01:29:36;3.00;99.90
18729;DHT22;9493;51.884;5.188;2023-02-15T01:32:03;3.00;99.90
18729;DHT22;9493;51.884;5.188;2023-02-15T01:34:30;3.00;99.90
18729;DHT22;9493;51.884;5.188;2023-02-15T01:36:57;2.90;99.90
18729;DHT22;9493;51.884;5.188;2023-02-15T01:39:24;2.90;99.90
18729;DHT22;9493;51.884;5.188;2023-02-15T01:41:51;2.90;99.90
18729;DHT22;9493;51.884;5.188;2023-02-15T01:44:52;2.90;99.90
18729;DHT22;9493;51.884;5.188;2023-02-15T01:47:24;2.90;99.90
18729;DHT22;9493;51.884;5.188;2023-02-15T01:50:00;2.80;99.90
18729;DHT22;9493;51.884;5.188;2023-02-15T01:52:27;2.90;99.90
18729;DHT22;9493;51.884;5.188;2023-02-15T01:54:55;2.90;99.90
18729;DHT22;9493;51.884;5.188;2023-02-15T01:57:23;2.90;99.90
18729;DHT22;9493;51.884;5.188;2023-02-15T01:59:56;2.90;99.90
18729;DHT22;9493;51.884;5.188;2023-02-15T02:02:27;3.00;99.90
18729;DHT22;9493;51.884;5.188;2023-02-15T02:04:58;3.00;99.90
18729;DHT22;9493;51.884;5.188;2023-02-15T02:07:32;3.00;99.90
18729;DHT22;9493;51.884;5.188;2023-02-15T02:10:00;2.90;99.90
18729;DHT22;9493;51.884;5.188;2023-02-15T02:12:27;2.90;99.90
18729;DHT22;9493;51.884;5.188;2023-02-15T02:14:56;2.90;99.90
18729;DHT22;9493;51.884;5.188;2023-02-15T02:17:30;2.90;99.90
18729;DHT22;9493;51.884;5.188;2023-02-15T02:20:27;2.80;99.90
18729;DHT22;9493;51.884;5.188;2023-02-15T02:23:15;2.90;99.90
18729;DHT22;9493;51.884;5.188;2023-02-15T02:32:24;2.80;99.90
18729;DHT22;9493;51.884;5.188;2023-02-15T02:35:00;2.70;99.90
18729;DHT22;9493;51.884;5.188;2023-02-15T02:37:37;2.70;99.90
18729;DHT22;9493;51.884;5.188;2023-02-15T02:40:15;2.70;99.90
18729;DHT22;9493;51.884;5.188;2023-02-15T02:42:49;2.70;99.90
18729;DHT22;9493;51.884;5.188;2023-02-15T02:45:24;2.70;99.90
18729;DHT22;9493;51.884;5.188;2023-02-15T02:47:56;2.70;99.90
18729;DHT22;9493;51.884;5.188;2023-02-15T02:50:28;2.70;99.90
18729;DHT22;9493;51.884;5.188;2023-02-15T02:52:57;2.60;99.90
18729;DHT22;9493;51.884;5.188;2023-02-15T02:55:26;2.60;99.90
18729;DHT22;9493;51.884;5.188;2023-02-15T02:58:01;2.60;99.90
18729;DHT22;9493;51.884;5.188;2023-02-15T03:00:31;2.60;99.90
18729;DHT22;9493;51.884;5.188;2023-02-15T03:03:02;2.70;99.90
18729;DHT22;9493;51.884;5.188;2023-02-15T03:05:34;2.90;99.90
18729;DHT22;9493;51.884;5.188;2023-02-15T03:08:04;2.80;99.90
18729;DHT22;9493;51.884;5.188;2023-02-15T03:10:37;2.90;99.90
18729;DHT22;9493;51.884;5.188;2023-02-15T03:13:05;2.80;99.90
18729;DHT22;9493;51.884;5.188;2023-02-15T03:15:36;2.80;99.90
18729;DHT22;9493;51.884;5.188;2023-02-15T03:18:23;2.80;99.90
18729;DHT22;9493;51.884;5.188;2023-02-15T03:20:53;2.70;99.90
18729;DHT22;9493;51.884;5.188;2023-02-15T03:23:22;2.70;99.90
18729;DHT22;9493;51.884;5.188;2023-02-15T03:25:52;2.80;99.90
18729;DHT22;9493;51.884;5.188;2023-02-15T03:28:27;2.80;99.90
18729;DHT22;9493;51.884;5.188;2023-02-15T03:30:58;2.80;99.90
18729;DHT22;9493;51.884;5.188;2023-02-15T03:33:28;2.80;99.90
18729;DHT22;9493;51.884;5.188;2023-02-15T03:36:01;2.80;99.90
18729;DHT22;9493;51.884;5.188;2023-02-15T03:38:34;2.70;99.90
18729;DHT22;9493;51.884;5.188;2023-02-15T03:41:03;2.70;99.90
18729;DHT22;9493;51.884;5.188;2023-02-15T03:43:43;2.70;99.90
18729;DHT22;9493;51.884;5.188;2023-02-15T03:46:15;2.60;99.90
18729;DHT22;9493;51.884;5.188;2023-02-15T03:48:45;2.60;99.90
18729;DHT22;9493;51.884;5.188;2023-02-15T03:51:18;2.50;99.90
18729;DHT22;9493;51.884;5.188;2023-02-15T03:54:02;2.50;99.90
18729;DHT22;9493;51.884;5.188;2023-02-15T03:56:30;2.50;99.90
18729;DHT22;9493;51.884;5.188;2023-02-15T03:58:57;2.40;99.90
18729;DHT22;9493;51.884;5.188;2023-02-15T04:01:48;2.40;99.90
18729;DHT22;9493;51.884;5.188;2023-02-15T04:04:31;2.30;99.90
18729;DHT22;9493;51.884;5.188;2023-02-15T04:07:00;2.30;99.90
18729;DHT22;9493;51.884;5.188;2023-02-15T04:09:27;2.30;99.90
18729;DHT22;9493;51.884;5.188;2023-02-15T04:12:11;2.30;99.90
18729;DHT22;9493;51.884;5.188;2023-02-15T04:14:38;2.30;99.90
18729;DHT22;9493;51.884;5.188;2023-02-15T04:17:23;2.40;99.90
18729;DHT22;9493;51.884;5.188;2023-02-15T04:19:49;2.30;99.90
18729;DHT22;9493;51.884;5.188;2023-02-15T04:22:35;2.40;99.90
18729;DHT22;9493;51.884;5.188;2023-02-15T04:25:19;2.30;99.90
18729;DHT22;9493;51.884;5.188;2023-02-15T04:27:49;2.30;99.90
18729;DHT22;9493;51.884;5.188;2023-02-15T04:30:18;2.20;99.90
18729;DHT22;9493;51.884;5.188;2023-02-15T04:32:46;2.20;99.90
18729;DHT22;9493;51.884;5.188;2023-02-15T04:35:13;2.20;99.90
18729;DHT22;9493;51.884;5.188;2023-02-15T04:37:43;2.20;99.90
18729;DHT22;9493;51.884;5.188;2023-02-15T04:40:11;2.10;99.90
18729;DHT22;9493;51.884;5.188;2023-02-15T04:42:39;2.00;99.90
18729;DHT22;9493;51.884;5.188;2023-02-15T04:45:06;2.00;99.90
18729;DHT22;9493;51.884;5.188;2023-02-15T04:47:33;2.10;99.90
18729;DHT22;9493;51.884;5.188;2023-02-15T04:50:00;2.00;99.90
18729;DHT22;9493;51.884;5.188;2023-02-15T04:52:27;2.00;99.90
18729;DHT22;9493;51.884;5.188;2023-02-15T04:54:55;2.00;99.90
18729;DHT22;9493;51.884;5.188;2023-02-15T04:57:22;1.90;99.90
18729;DHT22;9493;51.884;5.188;2023-02-15T04:59:49;1.80;99.90
18729;DHT22;9493;51.884;5.188;2023-02-15T05:02:16;1.80;99.90
18729;DHT22;9493;51.884;5.188;2023-02-15T05:04:43;1.90;99.90
18729;DHT22;9493;51.884;5.188;2023-02-15T05:07:09;1.80;99.90
18729;DHT22;9493;51.884;5.188;2023-02-15T05:09:36;1.80;99.90
18729;DHT22;9493;51.884;5.188;2023-02-15T05:12:05;1.80;99.90
18729;DHT22;9493;51.884;5.188;2023-02-15T05:14:31;1.80;99.90
18729;DHT22;9493;51.884;5.188;2023-02-15T05:16:58;1.80;99.90
18729;DHT22;9493;51.884;5.188;2023-02-15T05:19:27;1.70;99.90
18729;DHT22;9493;51.884;5.188;2023-02-15T05:21:53;1.70;99.90
18729;DHT22;9493;51.884;5.188;2023-02-15T05:24:20;1.70;99.90
18729;DHT22;9493;51.884;5.188;2023-02-15T05:27:06;1.70;99.90
18729;DHT22;9493;51.884;5.188;2023-02-15T05:29:50;1.80;99.90
18729;DHT22;9493;51.884;5.188;2023-02-15T05:32:17;1.80;99.90
18729;DHT22;9493;51.884;5.188;2023-02-15T05:34:44;1.70;99.90
18729;DHT22;9493;51.884;5.188;2023-02-15T05:37:10;1.70;99.90
18729;DHT22;9493;51.884;5.188;2023-02-15T05:39:37;1.60;99.90
18729;DHT22;9493;51.884;5.188;2023-02-15T05:42:05;1.60;99.90
18729;DHT22;9493;51.884;5.188;2023-02-15T05:44:32;1.60;99.90
18729;DHT22;9493;51.884;5.188;2023-02-15T05:46:59;1.60;99.90
18729;DHT22;9493;51.884;5.188;2023-02-15T05:49:28;1.60;99.90
18729;DHT22;9493;51.884;5.188;2023-02-15T05:51:55;1.50;99.90
18729;DHT22;9493;51.884;5.188;2023-02-15T05:54:22;1.50;99.90
18729;DHT22;9493;51.884;5.188;2023-02-15T05:56:49;1.50;99.90
18729;DHT22;9493;51.884;5.188;2023-02-15T05:59:17;1.50;99.90
18729;DHT22;9493;51.884;5.188;2023-02-15T06:01:44;1.40;99.90
18729;DHT22;9493;51.884;5.188;2023-02-15T06:04:12;1.40;99.90
18729;DHT22;9493;51.884;5.188;2023-02-15T06:06:39;1.40;99.90
18729;DHT22;9493;51.884;5.188;2023-02-15T06:09:05;1.40;99.90
18729;DHT22;9493;51.884;5.188;2023-02-15T06:11:32;1.30;99.90
18729;DHT22;9493;51.884;5.188;2023-02-15T06:13:59;1.30;99.90
18729;DHT22;9493;51.884;5.188;2023-02-15T06:16:27;1.30;99.90
18729;DHT22;9493;51.884;5.188;2023-02-15T06:18:54;1.40;99.90
18729;DHT22;9493;51.884;5.188;2023-02-15T06:21:21;1.40;99.90
18729;DHT22;9493;51.884;5.188;2023-02-15T06:23:47;1.50;99.90
18729;DHT22;9493;51.884;5.188;2023-02-15T06:26:14;1.40;99.90
18729;DHT22;9493;51.884;5.188;2023-02-15T06:28:41;1.40;99.90
18729;DHT22;9493;51.884;5.188;2023-02-15T06:31:07;1.40;99.90
18729;DHT22;9493;51.884;5.188;2023-02-15T06:33:36;1.30;99.90
18729;DHT22;9493;51.884;5.188;2023-02-15T06:36:03;1.30;99.90
18729;DHT22;9493;51.884;5.188;2023-02-15T06:38:30;1.20;99.90
18729;DHT22;9493;51.884;5.188;2023-02-15T06:40:57;1.20;99.90
18729;DHT22;9493;51.884;5.188;2023-02-15T06:43:24;1.20;99.90
18729;DHT22;9493;51.884;5.188;2023-02-15T06:45:51;1.20;99.90
18729;DHT22;9493;51.884;5.188;2023-02-15T06:48:18;1.10;99.90
18729;DHT22;9493;51.884;5.188;2023-02-15T06:50:46;1.20;99.90
18729;DHT22;9493;51.884;5.188;2023-02-15T06:53:12;1.20;99.90
18729;DHT22;9493;51.884;5.188;2023-02-15T06:55:39;1.30;99.90
18729;DHT22;9493;51.884;5.188;2023-02-15T06:58:06;1.20;99.90
18729;DHT22;9493;51.884;5.188;2023-02-15T07:00:33;1.30;99.90
18729;DHT22;9493;51.884;5.188;2023-02-15T07:03:00;1.30;99.90
18729;DHT22;9493;51.884;5.188;2023-02-15T07:05:28;1.20;99.90
18729;DHT22;9493;51.884;5.188;2023-02-15T07:07:57;1.20;99.90
18729;DHT22;9493;51.884;5.188;2023-02-15T07:10:24;1.10;99.90
18729;DHT22;9493;51.884;5.188;2023-02-15T07:12:51;1.20;99.90
18729;DHT22;9493;51.884;5.188;2023-02-15T07:15:18;1.20;99.90
18729;DHT22;9493;51.884;5.188;2023-02-15T07:17:46;1.20;99.90
18729;DHT22;9493;51.884;5.188;2023-02-15T07:20:15;1.20;99.90
18729;DHT22;9493;51.884;5.188;2023-02-15T07:22:42;1.20;99.90
18729;DHT22;9493;51.884;5.188;2023-02-15T07:25:11;1.30;99.90
18729;DHT22;9493;51.884;5.188;2023-02-15T07:27:39;1.40;99.90
18729;DHT22;9493;51.884;5.188;2023-02-15T07:30:08;1.40;99.90
18729;DHT22;9493;51.884;5.188;2023-02-15T07:32:35;1.40;99.90
18729;DHT22;9493;51.884;5.188;2023-02-15T07:35:02;1.50;99.90
18729;DHT22;9493;51.884;5.188;2023-02-15T07:37:29;1.50;99.90
18729;DHT22;9493;51.884;5.188;2023-02-15T07:39:55;1.60;99.90
18729;DHT22;9493;51.884;5.188;2023-02-15T07:42:24;1.60;99.90
18729;DHT22;9493;51.884;5.188;2023-02-15T07:44:50;1.70;99.90
18729;DHT22;9493;51.884;5.188;2023-02-15T07:47:18;1.70;99.90
18729;DHT22;9493;51.884;5.188;2023-02-15T07:49:44;1.80;99.90
18729;DHT22;9493;51.884;5.188;2023-02-15T07:52:11;1.80;99.90
18729;DHT22;9493;51.884;5.188;2023-02-15T07:54:38;1.80;99.90
18729;DHT22;9493;51.884;5.188;2023-02-15T07:57:05;1.80;99.90
18729;DHT22;9493;51.884;5.188;2023-02-15T07:59:33;1.90;99.90
18729;DHT22;9493;51.884;5.188;2023-02-15T08:01:59;1.90;99.90
18729;DHT22;9493;51.884;5.188;2023-02-15T08:04:26;2.00;99.90
18729;DHT22;9493;51.884;5.188;2023-02-15T08:06:53;2.10;99.90
18729;DHT22;9493;51.884;5.188;2023-02-15T08:09:20;2.10;99.90
18729;DHT22;9493;51.884;5.188;2023-02-15T08:11:48;2.20;99.90
18729;DHT22;9493;51.884;5.188;2023-02-15T08:14:16;2.20;99.90
18729;DHT22;9493;51.884;5.188;2023-02-15T08:16:46;2.30;99.90
18729;DHT22;9493;51.884;5.188;2023-02-15T08:19:15;2.40;99.90
18729;DHT22;9493;51.884;5.188;2023-02-15T08:21:44;2.40;99.90
18729;DHT22;9493;51.884;5.188;2023-02-15T08:24:13;2.50;99.90
18729;DHT22;9493;51.884;5.188;2023-02-15T08:26:41;2.60;99.90
18729;DHT22;9493;51.884;5.188;2023-02-15T08:29:09;2.70;99.90
18729;DHT22;9493;51.884;5.188;2023-02-15T08:31:36;2.80;99.90
18729;DHT22;9493;51.884;5.188;2023-02-15T08:34:04;2.90;99.90
18729;DHT22;9493;51.884;5.188;2023-02-15T08:36:32;2.90;99.90
18729;DHT22;9493;51.884;5.188;2023-02-15T08:39:00;3.00;99.90
18729;DHT22;9493;51.884;5.188;2023-02-15T08:41:28;3.10;99.90
18729;DHT22;9493;51.884;5.188;2023-02-15T08:43:57;3.10;99.90
18729;DHT22;9493;51.884;5.188;2023-02-15T08:46:26;3.20;99.90
18729;DHT22;9493;51.884;5.188;2023-02-15T08:48:53;3.40;99.90
18729;DHT22;9493;51.884;5.188;2023-02-15T08:51:23;3.50;99.90
18729;DHT22;9493;51.884;5.188;2023-02-15T08:53:52;3.50;99.90
18729;DHT22;9493;51.884;5.188;2023-02-15T08:56:21;3.70;99.90
18729;DHT22;9493;51.884;5.188;2023-02-15T08:58:48;3.70;99.90
18729;DHT22;9493;51.884;5.188;2023-02-15T09:01:16;3.80;99.90
18729;DHT22;9493;51.884;5.188;2023-02-15T09:03:46;3.80;99.90
18729;DHT22;9493;51.884;5.188;2023-02-15T09:06:13;3.90;99.90
18729;DHT22;9493;51.884;5.188;2023-02-15T09:08:42;4.00;99.90
18729;DHT22;9493;51.884;5.188;2023-02-15T09:11:10;4.20;99.90
18729;DHT22;9493;51.884;5.188;2023-02-15T09:13:38;4.40;99.90
18729;DHT22;9493;51.884;5.188;2023-02-15T09:16:07;4.50;99.90
18729;DHT22;9493;51.884;5.188;2023-02-15T09:18:36;4.70;99.90
18729;DHT22;9493;51.884;5.188;2023-02-15T09:21:05;4.90;99.90
18729;DHT22;9493;51.884;5.188;2023-02-15T09:23:32;5.00;99.90
18729;DHT22;9493;51.884;5.188;2023-02-15T09:26:04;5.20;99.90
18729;DHT22;9493;51.884;5.188;2023-02-15T09:28:31;5.30;99.90
18729;DHT22;9493;51.884;5.188;2023-02-15T09:31:05;5.40;99.90
18729;DHT22;9493;51.884;5.188;2023-02-15T09:33:33;5.50;99.90
18729;DHT22;9493;51.884;5.188;2023-02-15T09:36:01;5.60;99.90
18729;DHT22;9493;51.884;5.188;2023-02-15T09:38:28;5.80;99.90
18729;DHT22;9493;51.884;5.188;2023-02-15T09:41:06;6.00;99.90
18729;DHT22;9493;51.884;5.188;2023-02-15T09:43:38;6.20;99.90
18729;DHT22;9493;51.884;5.188;2023-02-15T09:46:31;6.40;99.90
18729;DHT22;9493;51.884;5.188;2023-02-15T09:49:08;6.70;99.90
18729;DHT22;9493;51.884;5.188;2023-02-15T09:51:52;6.70;99.90
18729;DHT22;9493;51.884;5.188;2023-02-15T09:54:33;6.90;99.90
18729;DHT22;9493;51.884;5.188;2023-02-15T09:57:10;7.10;99.90
18729;DHT22;9493;51.884;5.188;2023-02-15T09:59:47;7.30;99.90
18729;DHT22;9493;51.884;5.188;2023-02-15T10:02:27;7.60;99.90
18729;DHT22;9493;51.884;5.188;2023-02-15T10:05:11;7.80;99.90
18729;DHT22;9493;51.884;5.188;2023-02-15T10:08:20;7.70;99.90
18729;DHT22;9493;51.884;5.188;2023-02-15T10:10:57;7.70;99.90
18729;DHT22;9493;51.884;5.188;2023-02-15T10:13:54;8.00;99.90
18729;DHT22;9493;51.884;5.188;2023-02-15T10:16:29;8.20;99.90
18729;DHT22;9493;51.884;5.188;2023-02-15T10:19:05;8.20;99.90
18729;DHT22;9493;51.884;5.188;2023-02-15T10:21:47;8.40;99.90
18729;DHT22;9493;51.884;5.188;2023-02-15T10:24:31;8.50;99.90
18729;DHT22;9493;51.884;5.188;2023-02-15T10:27:09;8.40;99.90
18729;DHT22;9493;51.884;5.188;2023-02-15T10:29:43;8.40;99.90
18729;DHT22;9493;51.884;5.188;2023-02-15T10:32:20;8.80;99.90
18729;DHT22;9493;51.884;5.188;2023-02-15T10:34:51;9.20;99.90
18729;DHT22;9493;51.884;5.188;2023-02-15T10:37:34;8.90;99.90
18729;DHT22;9493;51.884;5.188;2023-02-15T10:40:08;9.00;99.90
18729;DHT22;9493;51.884;5.188;2023-02-15T10:42:54;9.40;99.90
18729;DHT22;9493;51.884;5.188;2023-02-15T10:45:32;9.40;99.90
18729;DHT22;9493;51.884;5.188;2023-02-15T10:48:16;9.30;99.90
18729;DHT22;9493;51.884;5.188;2023-02-15T10:50:50;9.60;99.90
18729;DHT22;9493;51.884;5.188;2023-02-15T10:53:38;9.70;99.90
18729;DHT22;9493;51.884;5.188;2023-02-15T10:56:14;9.70;99.90
18729;DHT22;9493;51.884;5.188;2023-02-15T10:58:56;9.70;99.90
18729;DHT22;9493;51.884;5.188;2023-02-15T11:01:34;9.60;99.90
18729;DHT22;9493;51.884;5.188;2023-02-15T11:04:39;9.80;99.90
18729;DHT22;9493;51.884;5.188;2023-02-15T11:07:15;10.00;99.90
18729;DHT22;9493;51.884;5.188;2023-02-15T11:09:45;10.10;99.90
18729;DHT22;9493;51.884;5.188;2023-02-15T11:12:17;10.30;99.90
18729;DHT22;9493;51.884;5.188;2023-02-15T11:14:50;10.30;99.90
18729;DHT22;9493;51.884;5.188;2023-02-15T11:17:23;10.00;99.90
18729;DHT22;9493;51.884;5.188;2023-02-15T11:19:56;10.30;99.90
18729;DHT22;9493;51.884;5.188;2023-02-15T11:22:26;10.40;99.90
18729;DHT22;9493;51.884;5.188;2023-02-15T11:24:54;10.60;99.90
18729;DHT22;9493;51.884;5.188;2023-02-15T11:27:25;10.80;99.90
18729;DHT22;9493;51.884;5.188;2023-02-15T11:29:57;10.60;99.90
18729;DHT22;9493;51.884;5.188;2023-02-15T11:32:28;10.70;99.90
18729;DHT22;9493;51.884;5.188;2023-02-15T11:35:00;10.80;99.90
18729;DHT22;9493;51.884;5.188;2023-02-15T11:37:33;10.80;99.90
18729;DHT22;9493;51.884;5.188;2023-02-15T11:40:03;11.00;99.90
18729;DHT22;9493;51.884;5.188;2023-02-15T11:42:39;11.10;99.90
18729;DHT22;9493;51.884;5.188;2023-02-15T11:45:19;11.10;99.90
18729;DHT22;9493;51.884;5.188;2023-02-15T11:47:48;11.20;99.90
18729;DHT22;9493;51.884;5.188;2023-02-15T11:50:19;11.30;99.90
18729;DHT22;9493;51.884;5.188;2023-02-15T11:52:47;11.70;99.90
18729;DHT22;9493;51.884;5.188;2023-02-15T11:55:19;11.90;99.90
18729;DHT22;9493;51.884;5.188;2023-02-15T11:57:52;12.00;99.90
18729;DHT22;9493;51.884;5.188;2023-02-15T12:00:30;11.90;99.90
18729;DHT22;9493;51.884;5.188;2023-02-15T12:03:07;12.00;99.90
18729;DHT22;9493;51.884;5.188;2023-02-15T12:05:40;12.10;99.90
18729;DHT22;9493;51.884;5.188;2023-02-15T12:08:16;12.10;99.90
18729;DHT22;9493;51.884;5.188;2023-02-15T12:10:53;12.10;99.90
18729;DHT22;9493;51.884;5.188;2023-02-15T12:13:22;12.30;99.90
18729;DHT22;9493;51.884;5.188;2023-02-15T12:15:52;12.30;99.90
18729;DHT22;9493;51.884;5.188;2023-02-15T12:18:35;12.80;99.90
18729;DHT22;9493;51.884;5.188;2023-02-15T12:21:06;12.80;99.90
18729;DHT22;9493;51.884;5.188;2023-02-15T12:23:34;12.80;99.90
18729;DHT22;9493;51.884;5.188;2023-02-15T12:26:02;12.90;99.90
18729;DHT22;9493;51.884;5.188;2023-02-15T12:28:33;13.00;99.90
18729;DHT22;9493;51.884;5.188;2023-02-15T12:31:01;13.40;99.90
18729;DHT22;9493;51.884;5.188;2023-02-15T12:33:34;13.20;99.90
18729;DHT22;9493;51.884;5.188;2023-02-15T12:36:08;13.30;99.90
18729;DHT22;9493;51.884;5.188;2023-02-15T12:38:36;13.30;99.90
18729;DHT22;9493;51.884;5.188;2023-02-15T12:41:04;13.40;99.90
18729;DHT22;9493;51.884;5.188;2023-02-15T12:43:33;13.50;99.90
18729;DHT22;9493;51.884;5.188;2023-02-15T12:46:21;13.50;99.90
18729;DHT22;9493;51.884;5.188;2023-02-15T12:49:05;13.50;99.90
18729;DHT22;9493;51.884;5.188;2023-02-15T12:51:43;13.50;99.90
18729;DHT22;9493;51.884;5.188;2023-02-15T12:54:35;14.20;99.90
18729;DHT22;9493;51.884;5.188;2023-02-15T12:57:25;13.70;99.90
18729;DHT22;9493;51.884;5.188;2023-02-15T12:59:54;13.90;99.90
18729;DHT22;9493;51.884;5.188;2023-02-15T13:02:25;13.90;99.90
18729;DHT22;9493;51.884;5.188;2023-02-15T13:04:54;14.00;99.90
18729;DHT22;9493;51.884;5.188;2023-02-15T13:07:22;13.70;99.90
18729;DHT22;9493;51.884;5.188;2023-02-15T13:09:50;13.70;99.90
18729;DHT22;9493;51.884;5.188;2023-02-15T13:12:21;13.50;99.90
18729;DHT22;9493;51.884;5.188;2023-02-15T13:14:51;13.50;99.90
18729;DHT22;9493;51.884;5.188;2023-02-15T13:17:24;13.70;99.90
18729;DHT22;9493;51.884;5.188;2023-02-15T13:19:58;13.70;99.90
18729;DHT22;9493;51.884;5.188;2023-02-15T13:22:32;13.60;99.90
18729;DHT22;9493;51.884;5.188;2023-02-15T13:25:04;13.80;99.90
18729;DHT22;9493;51.884;5.188;2023-02-15T13:27:41;13.50;99.90
18729;DHT22;9493;51.884;5.188;2023-02-15T13:30:23;13.60;99.90
18729;DHT22;9493;51.884;5.188;2023-02-15T13:32:54;13.80;99.90
18729;DHT22;9493;51.884;5.188;2023-02-15T13:35:24;13.80;99.90
18729;DHT22;9493;51.884;5.188;2023-02-15T13:38:11;13.80;99.90
18729;DHT22;9493;51.884;5.188;2023-02-15T13:40:46;14.10;99.90
18729;DHT22;9493;51.884;5.188;2023-02-15T13:43:22;13.40;99.90
18729;DHT22;9493;51.884;5.188;2023-02-15T13:46:02;13.60;99.90
18729;DHT22;9493;51.884;5.188;2023-02-15T13:48:41;13.40;99.90
18729;DHT22;9493;51.884;5.188;2023-02-15T13:51:17;13.40;99.90
18729;DHT22;9493;51.884;5.188;2023-02-15T13:53:55;13.40;99.90
18729;DHT22;9493;51.884;5.188;2023-02-15T13:56:29;13.50;99.90
18729;DHT22;9493;51.884;5.188;2023-02-15T13:59:15;13.40;99.90
18729;DHT22;9493;51.884;5.188;2023-02-15T14:01:48;13.50;99.90
18729;DHT22;9493;51.884;5.188;2023-02-15T14:04:50;13.30;99.90
18729;DHT22;9493;51.884;5.188;2023-02-15T14:07:45;13.30;99.90
18729;DHT22;9493;51.884;5.188;2023-02-15T14:10:37;13.20;99.90
18729;DHT22;9493;51.884;5.188;2023-02-15T14:16:04;13.00;99.90
18729;DHT22;9493;51.884;5.188;2023-02-15T14:18:39;12.90;99.90
18729;DHT22;9493;51.884;5.188;2023-02-15T14:21:12;12.90;99.90
18729;DHT22;9493;51.884;5.188;2023-02-15T14:23:51;13.00;99.90
18729;DHT22;9493;51.884;5.188;2023-02-15T14:26:26;13.10;99.90
18729;DHT22;9493;51.884;5.188;2023-02-15T14:29:03;13.10;99.90
18729;DHT22;9493;51.884;5.188;2023-02-15T14:31:37;13.00;99.90
18729;DHT22;9493;51.884;5.188;2023-02-15T14:34:04;13.10;99.90
18729;DHT22;9493;51.884;5.188;2023-02-15T14:36:32;13.10;99.90
18729;DHT22;9493;51.884;5.188;2023-02-15T14:39:11;13.10;99.90
18729;DHT22;9493;51.884;5.188;2023-02-15T14:42:01;13.00;99.90
18729;DHT22;9493;51.884;5.188;2023-02-15T14:44:33;13.10;99.90
18729;DHT22;9493;51.884;5.188;2023-02-15T14:47:07;12.80;99.90
18729;DHT22;9493;51.884;5.188;2023-02-15T14:49:38;12.70;99.90
18729;DHT22;9493;51.884;5.188;2023-02-15T14:52:06;12.60;99.90
18729;DHT22;9493;51.884;5.188;2023-02-15T14:54:59;12.60;99.90
18729;DHT22;9493;51.884;5.188;2023-02-15T14:57:28;12.50;99.90
18729;DHT22;9493;51.884;5.188;2023-02-15T14:59:57;12.30;99.90
18729;DHT22;9493;51.884;5.188;2023-02-15T15:02:26;12.20;99.90
18729;DHT22;9493;51.884;5.188;2023-02-15T15:05:01;12.50;99.90
18729;DHT22;9493;51.884;5.188;2023-02-15T15:07:37;12.40;99.90
18729;DHT22;9493;51.884;5.188;2023-02-15T15:10:32;12.40;99.90
18729;DHT22;9493;51.884;5.188;2023-02-15T15:13:37;12.30;99.90
18729;DHT22;9493;51.884;5.188;2023-02-15T15:16:24;12.30;99.90
18729;DHT22;9493;51.884;5.188;2023-02-15T15:18:51;12.10;99.90
18729;DHT22;9493;51.884;5.188;2023-02-15T15:21:51;12.10;99.90
18729;DHT22;9493;51.884;5.188;2023-02-15T15:24:45;12.10;99.90
18729;DHT22;9493;51.884;5.188;2023-02-15T15:31:00;12.00;99.90
18729;DHT22;9493;51.884;5.188;2023-02-15T15:37:04;11.80;99.90
18729;DHT22;9493;51.884;5.188;2023-02-15T15:39:59;11.80;99.90
18729;DHT22;9493;51.884;5.188;2023-02-15T15:42:32;11.80;99.90
18729;DHT22;9493;51.884;5.188;2023-02-15T15:48:22;11.80;99.90
18729;DHT22;9493;51.884;5.188;2023-02-15T15:50:54;11.70;99.90
18729;DHT22;9493;51.884;5.188;2023-02-15T15:53:25;11.60;99.90
18729;DHT22;9493;51.884;5.188;2023-02-15T15:56:00;11.50;99.90
18729;DHT22;9493;51.884;5.188;2023-02-15T15:58:28;11.50;99.90
18729;DHT22;9493;51.884;5.188;2023-02-15T16:00:59;11.40;99.90
18729;DHT22;9493;51.884;5.188;2023-02-15T16:03:31;11.30;99.90
18729;DHT22;9493;51.884;5.188;2023-02-15T16:05:58;11.30;99.90
18729;DHT22;9493;51.884;5.188;2023-02-15T16:08:30;11.30;99.90
18729;DHT22;9493;51.884;5.188;2023-02-15T16:10:58;11.20;99.90
18729;DHT22;9493;51.884;5.188;2023-02-15T16:13:27;11.20;99.90
18729;DHT22;9493;51.884;5.188;2023-02-15T16:15:55;11.20;99.90
18729;DHT22;9493;51.884;5.188;2023-02-15T16:18:24;11.00;99.90
18729;DHT22;9493;51.884;5.188;2023-02-15T16:20:55;11.00;99.90
18729;DHT22;9493;51.884;5.188;2023-02-15T16:23:45;10.90;99.90
18729;DHT22;9493;51.884;5.188;2023-02-15T16:26:24;10.90;99.90
18729;DHT22;9493;51.884;5.188;2023-02-15T16:28:56;10.90;99.90
18729;DHT22;9493;51.884;5.188;2023-02-15T16:31:23;10.90;99.90
18729;DHT22;9493;51.884;5.188;2023-02-15T16:33:53;10.80;99.90
18729;DHT22;9493;51.884;5.188;2023-02-15T16:36:24;10.80;99.90
18729;DHT22;9493;51.884;5.188;2023-02-15T16:39:09;10.60;99.90
18729;DHT22;9493;51.884;5.188;2023-02-15T16:41:36;10.50;99.90
18729;DHT22;9493;51.884;5.188;2023-02-15T16:44:07;10.50;99.90
18729;DHT22;9493;51.884;5.188;2023-02-15T16:46:38;10.40;99.90
18729;DHT22;9493;51.884;5.188;2023-02-15T16:49:07;10.30;99.90